createdAt,value
2023-05-06T00:00:40.040Z,94.66
2023-05-06T00:01:40.018Z,94.87
2023-05-06T00:02:40.068Z,95.17
2023-05-06T00:03:40.143Z,95.78
2023-05-06T00:04:40.047Z,97.77
2023-05-06T00:05:39.976Z,97.41
2023-05-06T00:06:39.971Z,97.36
2023-05-06T00:07:39.963Z,96.75
2023-05-06T00:08:39.976Z,96.44
2023-05-06T00:09:39.935Z,96.54
2023-05-06T00:10:39.931Z,96.34
2023-05-06T00:11:39.933Z,96.59
2023-05-06T00:12:39.946Z,96.69
2023-05-06T00:13:40.000Z,97.00
2023-05-06T00:14:39.886Z,96.79
2023-05-06T00:15:39.879Z,96.69
2023-05-06T00:16:39.899Z,96.89
2023-05-06T00:17:39.870Z,95.77
2023-05-06T00:18:39.852Z,95.87
2023-05-06T00:19:39.856Z,95.06
2023-05-06T00:20:39.845Z,95.57
2023-05-06T00:21:39.817Z,95.16
2023-05-06T00:22:39.826Z,94.85
2023-05-06T00:23:39.812Z,95.16
2023-05-06T00:24:39.791Z,94.49
2023-05-06T00:25:39.779Z,94.85
2023-05-06T00:26:40.937Z,94.34
2023-05-06T00:27:40.922Z,94.29
2023-05-06T00:28:40.901Z,94.49
2023-05-06T00:29:40.884Z,94.38
2023-05-06T00:30:40.897Z,94.49
2023-05-06T00:31:40.945Z,93.88
2023-05-06T00:32:40.939Z,93.88
2023-05-06T00:33:40.852Z,93.37
2023-05-06T00:34:40.857Z,93.77
2023-05-06T00:35:40.832Z,96.12
2023-05-06T00:36:40.834Z,95.96
2023-05-06T00:37:40.809Z,95.25
2023-05-06T00:38:40.804Z,94.23
2023-05-06T00:39:40.772Z,94.53
2023-05-06T00:40:40.807Z,94.58
2023-05-06T00:41:40.777Z,95.09
2023-05-06T00:42:40.768Z,95.29
2023-05-06T00:43:40.754Z,96.17
2023-05-06T00:44:40.746Z,96.58
2023-05-06T00:45:40.809Z,96.51
2023-05-06T00:46:40.735Z,96.62
2023-05-06T00:47:40.734Z,96.47
2023-05-06T00:48:40.696Z,96.68
2023-05-06T00:49:40.681Z,96.06
2023-05-06T00:50:40.720Z,95.45
2023-05-06T00:51:40.663Z,96.06
2023-05-06T00:52:40.680Z,96.58
2023-05-06T00:53:40.648Z,97.08
2023-05-06T00:54:40.641Z,97.04
2023-05-06T00:55:41.644Z,96.73
2023-05-06T00:56:40.642Z,96.58
2023-05-06T00:57:40.615Z,96.63
2023-05-06T00:58:40.602Z,97.04
2023-05-06T00:59:40.590Z,97.34
2023-05-06T01:00:40.589Z,96.63
2023-05-06T01:01:40.636Z,96.53
2023-05-06T01:02:46.830Z,96.73
2023-05-06T01:03:42.781Z,96.33
2023-05-06T01:04:40.592Z,96.63
2023-05-06T01:05:40.539Z,97.50
2023-05-06T01:06:40.526Z,97.61
2023-05-06T01:07:40.519Z,97.40
2023-05-06T01:08:40.531Z,97.81
2023-05-06T01:09:40.505Z,98.32
2023-05-06T01:10:40.509Z,98.32
2023-05-06T01:11:40.496Z,98.22
2023-05-06T01:12:40.554Z,98.32
2023-05-06T01:13:40.462Z,97.61
2023-05-06T01:14:40.446Z,97.75
2023-05-06T01:15:40.451Z,97.90
2023-05-06T01:16:40.466Z,97.96
2023-05-06T01:17:40.472Z,98.16
2023-05-06T01:18:40.446Z,98.52
2023-05-06T01:19:40.417Z,98.41
2023-05-06T01:20:40.405Z,98.11
2023-05-06T01:21:40.408Z,97.96
2023-05-06T01:22:40.390Z,97.75
2023-05-06T01:23:40.403Z,98.00
2023-05-06T01:24:40.395Z,97.34
2023-05-06T01:25:40.364Z,97.65
2023-05-06T01:26:40.364Z,98.06
2023-05-06T01:27:40.348Z,98.06
2023-05-06T01:28:40.360Z,98.57
2023-05-06T01:29:40.333Z,98.47
2023-05-06T01:30:40.294Z,98.06
2023-05-06T01:31:40.376Z,98.16
2023-05-06T01:32:40.360Z,98.11
2023-05-06T01:33:40.314Z,97.34
2023-05-06T01:34:40.274Z,97.81
2023-05-06T01:35:40.323Z,97.61
2023-05-06T01:36:40.261Z,98.11
2023-05-06T01:37:40.249Z,97.71
2023-05-06T01:38:40.222Z,98.22
2023-05-06T01:39:40.215Z,98.52
2023-05-06T01:40:40.231Z,97.91
2023-05-06T01:41:40.215Z,97.71
2023-05-06T01:42:40.199Z,97.71
2023-05-06T01:43:40.190Z,97.50
2023-05-06T01:44:40.158Z,96.75
2023-05-06T01:45:40.155Z,96.54
2023-05-06T01:46:40.258Z,95.97
2023-05-06T01:47:40.175Z,95.83
2023-05-06T01:48:40.115Z,95.87
2023-05-06T01:49:40.148Z,96.79
2023-05-06T01:50:40.133Z,97.00
2023-05-06T01:51:40.105Z,97.09
2023-05-06T01:52:40.102Z,96.64
2023-05-06T01:53:40.097Z,96.75
2023-05-06T01:54:40.114Z,96.54
2023-05-06T01:55:40.098Z,96.64
2023-05-06T01:56:40.062Z,96.44
2023-05-06T01:57:40.059Z,96.59
2023-05-06T01:58:40.049Z,97.00
2023-05-06T01:59:40.049Z,97.50
2023-05-06T02:00:40.055Z,97.40
2023-05-06T02:01:40.035Z,97.65
2023-05-06T02:02:40.053Z,97.91
2023-05-06T02:03:40.053Z,97.81
2023-05-06T02:04:39.959Z,98.27
2023-05-06T02:05:39.982Z,98.27
2023-05-06T02:06:39.919Z,98.16
2023-05-06T02:07:39.946Z,97.70
2023-05-06T02:08:39.973Z,97.75
2023-05-06T02:09:39.963Z,99.29
2023-05-06T02:10:39.967Z,99.08
2023-05-06T02:11:39.927Z,99.39
2023-05-06T02:12:39.965Z,99.08
2023-05-06T02:13:39.884Z,99.59
2023-05-06T02:14:39.891Z,99.29
2023-05-06T02:15:39.862Z,99.39
2023-05-06T02:16:39.934Z,99.44
2023-05-06T02:17:40.899Z,98.68
2023-05-06T02:18:39.847Z,98.88
2023-05-06T02:19:39.860Z,98.93
2023-05-06T02:20:39.849Z,98.73
2023-05-06T02:21:39.863Z,98.83
2023-05-06T02:22:39.786Z,98.63
2023-05-06T02:23:39.818Z,98.11
2023-05-06T02:24:39.805Z,98.02
2023-05-06T02:25:39.782Z,97.91
2023-05-06T02:26:39.804Z,97.91
2023-05-06T02:27:39.776Z,98.02
2023-05-06T02:28:39.779Z,98.11
2023-05-06T02:29:39.758Z,98.32
2023-05-06T02:30:39.766Z,98.63
2023-05-06T02:31:39.924Z,99.04
2023-05-06T02:32:39.765Z,98.93
2023-05-06T02:33:39.722Z,99.54
2023-05-06T02:34:39.703Z,99.49
2023-05-06T02:35:39.660Z,99.69
2023-05-06T02:36:39.645Z,99.59
2023-05-06T02:37:39.717Z,99.99
2023-05-06T02:38:39.662Z,99.99
2023-05-06T02:39:39.618Z,99.95
2023-05-06T02:40:39.641Z,99.99
2023-05-06T02:41:39.642Z,99.99
2023-05-06T02:42:39.692Z,99.99
2023-05-06T02:43:39.626Z,99.99
2023-05-06T02:44:39.583Z,99.99
2023-05-06T02:45:39.617Z,99.99
2023-05-06T02:46:39.590Z,99.99
2023-05-06T02:47:39.561Z,99.99
2023-05-06T02:48:39.533Z,99.99
2023-05-06T02:49:39.494Z,99.99
2023-05-06T02:50:39.502Z,99.99
2023-05-06T02:51:39.514Z,99.99
2023-05-06T02:52:39.506Z,99.99
2023-05-06T02:53:39.676Z,99.99
2023-05-06T02:54:40.473Z,99.99
2023-05-06T02:55:39.450Z,99.99
2023-05-06T02:56:39.470Z,99.99
2023-05-06T02:57:39.445Z,99.99
2023-05-06T02:58:39.446Z,99.99
2023-05-06T02:59:39.428Z,99.99
2023-05-06T03:00:39.418Z,99.99
2023-05-06T03:01:39.549Z,99.99
2023-05-06T03:02:39.404Z,99.99
2023-05-06T03:03:39.388Z,99.99
2023-05-06T03:04:39.387Z,99.99
2023-05-06T03:05:39.376Z,99.99
2023-05-06T03:06:39.356Z,99.99
2023-05-06T03:07:39.376Z,99.69
2023-05-06T03:08:39.326Z,99.39
2023-05-06T03:09:39.342Z,99.29
2023-05-06T03:10:39.319Z,99.18
2023-05-06T03:11:39.311Z,99.18
2023-05-06T03:12:39.321Z,99.49
2023-05-06T03:13:39.289Z,99.29
2023-05-06T03:14:39.270Z,99.49
2023-05-06T03:15:39.266Z,99.49
2023-05-06T03:16:39.333Z,98.98
2023-05-06T03:17:39.296Z,98.77
2023-05-06T03:18:39.225Z,99.29
2023-05-06T03:19:39.222Z,98.88
2023-05-06T03:20:39.226Z,98.77
2023-05-06T03:21:39.235Z,98.22
2023-05-06T03:22:39.210Z,98.32
2023-05-06T03:23:39.210Z,98.43
2023-05-06T03:24:39.191Z,97.71
2023-05-06T03:25:39.383Z,98.02
2023-05-06T03:26:39.180Z,97.61
2023-05-06T03:27:39.157Z,97.30
2023-05-06T03:28:39.147Z,97.30
2023-05-06T03:29:39.180Z,97.71
2023-05-06T03:30:39.119Z,97.40
2023-05-06T03:31:39.178Z,97.61
2023-05-06T03:32:39.149Z,98.11
2023-05-06T03:33:39.098Z,97.81
2023-05-06T03:34:39.132Z,98.02
2023-05-06T03:35:39.077Z,98.02
2023-05-06T03:36:39.059Z,97.61
2023-05-06T03:37:39.066Z,97.66
2023-05-06T03:38:39.063Z,97.50
2023-05-06T03:39:39.092Z,97.71
2023-05-06T03:40:39.039Z,97.97
2023-05-06T03:41:39.084Z,97.66
2023-05-06T03:42:39.015Z,97.25
2023-05-06T03:43:39.006Z,97.71
2023-05-06T03:44:39.005Z,98.02
2023-05-06T03:45:38.977Z,98.07
2023-05-06T03:46:39.048Z,97.71
2023-05-06T03:47:39.043Z,98.32
2023-05-06T03:48:38.970Z,98.32
2023-05-06T03:49:38.955Z,98.11
2023-05-06T03:50:38.940Z,98.11
2023-05-06T03:51:38.925Z,97.87
2023-05-06T03:52:38.951Z,97.97
2023-05-06T03:53:38.914Z,97.46
2023-05-06T03:54:38.890Z,97.36
2023-05-06T03:55:38.902Z,97.56
2023-05-06T03:56:38.873Z,97.36
2023-05-06T03:57:38.907Z,97.46
2023-05-06T03:58:38.856Z,96.54
2023-05-06T03:59:38.846Z,96.64
2023-05-06T04:00:38.845Z,96.75
2023-05-06T04:01:38.855Z,96.75
2023-05-06T04:02:38.995Z,97.87
2023-05-06T04:03:38.886Z,97.56
2023-05-06T04:04:38.799Z,97.66
2023-05-06T04:05:38.779Z,97.97
2023-05-06T04:06:38.776Z,97.87
2023-05-06T04:07:38.788Z,97.77
2023-05-06T04:08:38.760Z,98.27
2023-05-06T04:09:38.745Z,99.09
2023-05-06T04:10:38.756Z,99.24
2023-05-06T04:11:38.742Z,98.73
2023-05-06T04:12:38.772Z,99.04
2023-05-06T04:13:38.769Z,99.34
2023-05-06T04:14:38.702Z,99.65
2023-05-06T04:15:38.690Z,99.65
2023-05-06T04:16:38.798Z,99.80
2023-05-06T04:17:38.713Z,99.65
2023-05-06T04:18:38.657Z,99.29
2023-05-06T04:19:38.633Z,99.40
2023-05-06T04:20:38.630Z,99.99
2023-05-06T04:21:38.657Z,99.99
2023-05-06T04:22:38.607Z,99.65
2023-05-06T04:23:38.607Z,99.91
2023-05-06T04:24:38.610Z,99.19
2023-05-06T04:25:38.607Z,99.50
2023-05-06T04:26:38.583Z,99.29
2023-05-06T04:27:38.567Z,99.09
2023-05-06T04:28:38.564Z,98.64
2023-05-06T04:29:38.695Z,98.89
2023-05-06T04:30:38.559Z,98.99
2023-05-06T04:31:38.608Z,99.09
2023-05-06T04:32:38.567Z,98.58
2023-05-06T04:33:38.528Z,99.09
2023-05-06T04:34:38.548Z,98.58
2023-05-06T04:35:38.532Z,97.77
2023-05-06T04:36:40.588Z,96.50
2023-05-06T04:37:38.516Z,96.95
2023-05-06T04:38:38.521Z,96.23
2023-05-06T04:39:38.516Z,96.50
2023-05-06T04:40:38.483Z,96.60
2023-05-06T04:41:38.460Z,96.91
2023-05-06T04:42:38.437Z,97.62
2023-05-06T04:43:38.461Z,96.50
2023-05-06T04:44:38.519Z,96.95
2023-05-06T04:45:38.507Z,97.36
2023-05-06T04:46:38.415Z,97.56
2023-05-06T04:47:38.448Z,97.56
2023-05-06T04:48:38.380Z,98.07
2023-05-06T04:49:38.383Z,97.97
2023-05-06T04:50:38.367Z,98.48
2023-05-06T04:51:38.374Z,97.66
2023-05-06T04:52:38.377Z,98.07
2023-05-06T04:53:38.330Z,98.02
2023-05-06T04:54:38.333Z,97.46
2023-05-06T04:55:38.329Z,97.72
2023-05-06T04:56:38.331Z,97.72
2023-05-06T04:57:38.313Z,97.62
2023-05-06T04:58:38.349Z,96.60
2023-05-06T04:59:39.301Z,96.19
2023-05-06T05:00:38.288Z,96.30
2023-05-06T05:01:38.403Z,96.23
2023-05-06T05:02:38.366Z,95.89
2023-05-06T05:03:38.294Z,95.07
2023-05-06T05:04:38.276Z,94.76
2023-05-06T05:05:38.258Z,95.23
2023-05-06T05:06:38.227Z,94.97
2023-05-06T05:07:38.220Z,94.87
2023-05-06T05:08:38.198Z,93.54
2023-05-06T05:09:38.183Z,94.31
2023-05-06T05:10:38.168Z,94.05
2023-05-06T05:11:38.173Z,95.03
2023-05-06T05:12:38.185Z,95.43
2023-05-06T05:13:38.138Z,95.43
2023-05-06T05:14:38.140Z,95.03
2023-05-06T05:15:38.139Z,95.43
2023-05-06T05:16:38.175Z,95.33
2023-05-06T05:17:38.257Z,95.33
2023-05-06T05:18:38.097Z,95.94
2023-05-06T05:19:38.108Z,95.74
2023-05-06T05:20:38.085Z,95.23
2023-05-06T05:21:38.080Z,95.64
2023-05-06T05:22:38.072Z,95.64
2023-05-06T05:23:38.060Z,94.82
2023-05-06T05:24:38.038Z,95.23
2023-05-06T05:25:38.067Z,95.29
2023-05-06T05:26:38.034Z,95.33
2023-05-06T05:27:38.026Z,95.18
2023-05-06T05:28:37.996Z,95.49
2023-05-06T05:29:38.021Z,95.43
2023-05-06T05:30:38.032Z,95.03
2023-05-06T05:31:38.077Z,95.33
2023-05-06T05:32:38.019Z,95.84
2023-05-06T05:33:38.086Z,95.89
2023-05-06T05:34:37.955Z,95.68
2023-05-06T05:35:37.982Z,97.00
2023-05-06T05:36:37.938Z,97.11
2023-05-06T05:37:37.911Z,96.23
2023-05-06T05:38:37.916Z,97.62
2023-05-06T05:39:37.903Z,97.52
2023-05-06T05:40:37.894Z,97.62
2023-05-06T05:41:37.897Z,96.19
2023-05-06T05:42:37.869Z,96.50
2023-05-06T05:43:37.887Z,97.62
2023-05-06T05:44:37.844Z,97.82
2023-05-06T05:45:37.952Z,97.37
2023-05-06T05:46:38.943Z,97.57
2023-05-06T05:47:37.832Z,96.04
2023-05-06T05:48:37.816Z,95.84
2023-05-06T05:49:37.804Z,95.69
2023-05-06T05:50:37.797Z,95.75
2023-05-06T05:51:37.793Z,95.75
2023-05-06T05:52:37.895Z,95.20
2023-05-06T05:53:37.759Z,94.79
2023-05-06T05:54:37.756Z,93.87
2023-05-06T05:55:37.777Z,93.37
2023-05-06T05:56:37.724Z,92.65
2023-05-06T05:57:37.728Z,93.22
2023-05-06T05:58:37.734Z,92.82
2023-05-06T05:59:37.729Z,92.41
2023-05-06T06:00:37.711Z,92.87
2023-05-06T06:01:37.683Z,92.97
2023-05-06T06:02:37.795Z,92.63
2023-05-06T06:03:37.750Z,91.16
2023-05-06T06:04:38.479Z,90.29
2023-05-06T06:05:37.780Z,90.75
2023-05-06T06:06:37.624Z,89.84
2023-05-06T06:07:37.626Z,89.33
2023-05-06T06:08:37.656Z,89.50
2023-05-06T06:09:37.589Z,89.54
2023-05-06T06:10:37.574Z,89.39
2023-05-06T06:11:37.591Z,89.90
2023-05-06T06:12:37.577Z,88.68
2023-05-06T06:13:37.568Z,88.75
2023-05-06T06:14:37.556Z,87.22
2023-05-06T06:15:37.540Z,87.87
2023-05-06T06:16:37.576Z,85.33
2023-05-06T06:17:37.545Z,86.25
2023-05-06T06:18:37.539Z,87.92
2023-05-06T06:19:37.509Z,88.12
2023-05-06T06:20:37.469Z,87.71
2023-05-06T06:21:37.579Z,88.12
2023-05-06T06:22:37.469Z,87.92
2023-05-06T06:23:37.470Z,87.57
2023-05-06T06:24:37.741Z,88.03
2023-05-06T06:25:37.442Z,84.28
2023-05-06T06:26:37.452Z,86.13
2023-05-06T06:27:37.421Z,83.69
2023-05-06T06:28:37.442Z,84.55
2023-05-06T06:29:37.415Z,86.22
2023-05-06T06:30:37.411Z,86.29
2023-05-06T06:31:39.722Z,83.76
2023-05-06T06:32:37.396Z,82.98
2023-05-06T06:33:37.343Z,83.49
2023-05-06T06:34:38.351Z,84.16
2023-05-06T06:35:37.350Z,84.42
2023-05-06T06:36:37.351Z,83.88
2023-05-06T06:37:37.381Z,83.03
2023-05-06T06:38:37.344Z,80.63
2023-05-06T06:39:37.331Z,80.83
2023-05-06T06:40:37.289Z,80.12
2023-05-06T06:41:37.317Z,80.79
2023-05-06T06:42:37.964Z,78.81
2023-05-06T06:43:37.235Z,78.17
2023-05-06T06:44:37.273Z,77.66
2023-05-06T06:45:37.266Z,77.76
2023-05-06T06:46:37.213Z,78.67
2023-05-06T06:47:37.451Z,79.28
2023-05-06T06:48:37.225Z,77.06
2023-05-06T06:49:37.196Z,76.99
2023-05-06T06:50:37.225Z,77.90
2023-05-06T06:51:37.211Z,77.53
2023-05-06T06:52:37.195Z,76.82
2023-05-06T06:53:37.213Z,78.24
2023-05-06T06:54:37.122Z,76.42
2023-05-06T06:55:37.141Z,76.18
2023-05-06T06:56:37.114Z,74.33
2023-05-06T06:57:37.114Z,75.81
2023-05-06T06:58:38.074Z,78.14
2023-05-06T06:59:37.295Z,77.29
2023-05-06T07:00:38.716Z,75.48
2023-05-06T07:01:37.130Z,76.95
2023-05-06T07:02:37.065Z,76.82
2023-05-06T07:03:37.118Z,76.11
2023-05-06T07:04:38.182Z,74.87
2023-05-06T07:05:37.040Z,74.32
2023-05-06T07:06:37.884Z,72.24
2023-05-06T07:07:36.998Z,72.91
2023-05-06T07:08:36.990Z,75.54
2023-05-06T07:09:40.044Z,73.45
2023-05-06T07:10:36.957Z,72.24
2023-05-06T07:11:36.945Z,73.41
2023-05-06T07:12:36.944Z,72.37
2023-05-06T07:13:37.074Z,71.70
2023-05-06T07:14:36.933Z,68.45
2023-05-06T07:15:36.913Z,68.08
2023-05-06T07:16:37.936Z,66.74
2023-05-06T07:17:36.934Z,68.88
2023-05-06T07:18:37.896Z,69.18
2023-05-06T07:19:36.925Z,69.09
2023-05-06T07:20:36.915Z,68.15
2023-05-06T07:21:36.855Z,65.56
2023-05-06T07:22:36.843Z,67.68
2023-05-06T07:23:36.822Z,69.69
2023-05-06T07:24:36.850Z,69.89
2023-05-06T07:25:36.834Z,70.66
2023-05-06T07:26:36.828Z,67.68
2023-05-06T07:27:36.797Z,66.85
2023-05-06T07:28:36.783Z,64.81
2023-05-06T07:29:36.768Z,66.18
2023-05-06T07:30:36.746Z,64.58
2023-05-06T07:31:36.823Z,65.24
2023-05-06T07:32:36.744Z,68.25
2023-05-06T07:33:36.736Z,65.00
2023-05-06T07:34:36.833Z,66.30
2023-05-06T07:35:36.730Z,69.01
2023-05-06T07:36:38.668Z,70.32
2023-05-06T07:37:36.692Z,71.37
2023-05-06T07:38:36.694Z,72.44
2023-05-06T07:39:36.686Z,70.53
2023-05-06T07:40:36.669Z,72.24
2023-05-06T07:41:36.737Z,71.70
2023-05-06T07:42:36.650Z,68.95
2023-05-06T07:43:36.730Z,67.57
2023-05-06T07:44:36.620Z,68.21
2023-05-06T07:45:36.625Z,70.42
2023-05-06T07:46:36.684Z,70.90
2023-05-06T07:47:36.700Z,68.81
2023-05-06T07:48:36.616Z,68.71
2023-05-06T07:49:36.565Z,69.35
2023-05-06T07:50:36.542Z,69.08
2023-05-06T07:51:36.519Z,69.31
2023-05-06T07:52:36.572Z,72.24
2023-05-06T07:53:36.536Z,74.76
2023-05-06T07:54:36.510Z,75.60
2023-05-06T07:55:36.510Z,73.92
2023-05-06T07:56:36.482Z,67.40
2023-05-06T07:57:36.464Z,69.05
2023-05-06T07:58:36.459Z,69.72
2023-05-06T07:59:36.441Z,73.55
2023-05-06T08:00:36.442Z,70.83
2023-05-06T08:01:36.422Z,70.76
2023-05-06T08:02:36.538Z,71.47
2023-05-06T08:03:36.523Z,72.98
2023-05-06T08:04:36.411Z,72.54
2023-05-06T08:05:36.391Z,69.95
2023-05-06T08:06:37.400Z,74.76
2023-05-06T08:07:36.383Z,73.05
2023-05-06T08:08:36.372Z,74.02
2023-05-06T08:09:36.376Z,73.95
2023-05-06T08:10:36.375Z,70.83
2023-05-06T08:11:36.353Z,73.08
2023-05-06T08:12:36.392Z,72.64
2023-05-06T08:13:36.369Z,69.82
2023-05-06T08:14:36.284Z,70.56
2023-05-06T08:15:36.280Z,71.40
2023-05-06T08:16:36.295Z,71.40
2023-05-06T08:17:36.294Z,71.00
2023-05-06T08:18:36.288Z,73.75
2023-05-06T08:19:36.253Z,73.85
2023-05-06T08:20:36.268Z,74.16
2023-05-06T08:21:36.280Z,74.73
2023-05-06T08:22:36.254Z,71.80
2023-05-06T08:23:36.218Z,70.69
2023-05-06T08:24:36.259Z,72.24
2023-05-06T08:25:36.238Z,72.71
2023-05-06T08:26:36.224Z,71.16
2023-05-06T08:27:36.197Z,69.12
2023-05-06T08:28:36.198Z,69.22
2023-05-06T08:29:36.252Z,69.35
2023-05-06T08:30:36.204Z,69.38
2023-05-06T08:31:36.226Z,69.62
2023-05-06T08:32:36.185Z,69.95
2023-05-06T08:33:36.160Z,71.67
2023-05-06T08:34:36.131Z,71.97
2023-05-06T08:35:36.119Z,74.05
2023-05-06T08:36:36.112Z,67.68
2023-05-06T08:37:36.092Z,71.26
2023-05-06T08:38:36.097Z,71.90
2023-05-06T08:39:36.082Z,66.91
2023-05-06T08:40:36.107Z,66.41
2023-05-06T08:41:36.066Z,61.47
2023-05-06T08:42:36.042Z,65.85
2023-05-06T08:43:36.041Z,61.44
2023-05-06T08:44:36.047Z,64.72
2023-05-06T08:45:36.181Z,61.38
2023-05-06T08:46:36.025Z,59.64
2023-05-06T08:47:36.023Z,64.18
2023-05-06T08:48:35.980Z,61.77
2023-05-06T08:49:35.959Z,62.66
2023-05-06T08:50:35.948Z,63.12
2023-05-06T08:51:35.918Z,64.13
2023-05-06T08:52:35.951Z,65.30
2023-05-06T08:53:35.896Z,64.87
2023-05-06T08:54:36.910Z,65.04
2023-05-06T08:55:35.905Z,67.32
2023-05-06T08:56:35.882Z,66.95
2023-05-06T08:57:35.866Z,63.85
2023-05-06T08:58:35.878Z,63.82
2023-05-06T08:59:35.859Z,61.89
2023-05-06T09:00:35.836Z,61.19
2023-05-06T09:01:35.940Z,60.95
2023-05-06T09:02:35.851Z,61.01
2023-05-06T09:03:35.886Z,61.50
2023-05-06T09:04:35.850Z,64.24
2023-05-06T09:05:35.828Z,63.49
2023-05-06T09:06:35.821Z,67.38
2023-05-06T09:07:35.826Z,66.61
2023-05-06T09:08:35.838Z,66.85
2023-05-06T09:09:35.812Z,64.48
2023-05-06T09:10:35.784Z,61.22
2023-05-06T09:11:35.756Z,59.62
2023-05-06T09:12:35.811Z,59.42
2023-05-06T09:13:35.774Z,57.68
2023-05-06T09:14:35.767Z,59.53
2023-05-06T09:15:35.772Z,61.30
2023-05-06T09:16:35.797Z,62.53
2023-05-06T09:17:35.801Z,63.10
2023-05-06T09:18:35.674Z,62.30
2023-05-06T09:19:35.662Z,66.75
2023-05-06T09:20:35.678Z,61.48
2023-05-06T09:21:35.662Z,62.79
2023-05-06T09:22:35.656Z,60.53
2023-05-06T09:23:35.636Z,59.11
2023-05-06T09:24:35.643Z,59.31
2023-05-06T09:25:35.635Z,58.25
2023-05-06T09:26:35.608Z,58.70
2023-05-06T09:27:36.601Z,54.49
2023-05-06T09:28:35.562Z,55.78
2023-05-06T09:29:35.545Z,57.92
2023-05-06T09:30:35.555Z,56.99
2023-05-06T09:31:35.571Z,50.10
2023-05-06T09:32:37.490Z,51.89
2023-05-06T09:33:35.620Z,55.02
2023-05-06T09:34:35.490Z,53.89
2023-05-06T09:35:35.494Z,58.11
2023-05-06T09:36:35.488Z,61.10
2023-05-06T09:37:35.474Z,62.20
2023-05-06T09:38:35.459Z,61.54
2023-05-06T09:39:35.481Z,64.01
2023-05-06T09:40:35.437Z,58.75
2023-05-06T09:41:35.453Z,56.22
2023-05-06T09:42:35.418Z,57.67
2023-05-06T09:43:35.423Z,55.71
2023-05-06T09:44:35.420Z,54.82
2023-05-06T09:45:35.419Z,52.02
2023-05-06T09:46:35.448Z,54.47
2023-05-06T09:47:35.556Z,53.34
2023-05-06T09:48:35.428Z,56.98
2023-05-06T09:49:35.476Z,56.10
2023-05-06T09:50:35.381Z,59.48
2023-05-06T09:51:35.371Z,57.80
2023-05-06T09:52:35.323Z,58.94
2023-05-06T09:53:35.313Z,57.66
2023-05-06T09:54:35.299Z,60.86
2023-05-06T09:55:35.309Z,60.77
2023-05-06T09:56:35.304Z,60.57
2023-05-06T09:57:35.272Z,64.62
2023-05-06T09:58:35.266Z,60.95
2023-05-06T09:59:35.251Z,56.95
2023-05-06T10:00:35.260Z,58.32
2023-05-06T10:01:37.181Z,57.92
2023-05-06T10:02:36.376Z,56.32
2023-05-06T10:03:35.349Z,56.52
2023-05-06T10:04:35.443Z,59.62
2023-05-06T10:05:35.291Z,58.32
2023-05-06T10:06:35.204Z,62.39
2023-05-06T10:07:35.195Z,58.71
2023-05-06T10:08:35.195Z,58.33
2023-05-06T10:09:35.208Z,54.01
2023-05-06T10:10:35.189Z,55.93
2023-05-06T10:11:35.163Z,57.77
2023-05-06T10:12:35.154Z,54.31
2023-05-06T10:13:35.114Z,49.83
2023-05-06T10:14:35.140Z,50.95
2023-05-06T10:15:35.096Z,52.22
2023-05-06T10:16:35.138Z,55.69
2023-05-06T10:17:35.121Z,57.91
2023-05-06T10:18:35.062Z,51.97
2023-05-06T10:19:35.072Z,53.12
2023-05-06T10:20:35.154Z,56.09
2023-05-06T10:21:35.032Z,53.81
2023-05-06T10:22:35.080Z,50.92
2023-05-06T10:23:35.065Z,53.59
2023-05-06T10:24:35.040Z,53.06
2023-05-06T10:25:35.022Z,51.29
2023-05-06T10:26:35.003Z,55.13
2023-05-06T10:27:35.012Z,49.43
2023-05-06T10:28:35.024Z,48.83
2023-05-06T10:29:34.994Z,48.98
2023-05-06T10:30:34.969Z,51.05
2023-05-06T10:31:35.029Z,54.39
2023-05-06T10:32:35.018Z,58.03
2023-05-06T10:33:35.949Z,53.91
2023-05-06T10:34:34.931Z,52.51
2023-05-06T10:35:34.921Z,49.23
2023-05-06T10:36:34.918Z,52.51
2023-05-06T10:37:35.035Z,50.01
2023-05-06T10:38:34.914Z,50.60
2023-05-06T10:39:34.855Z,49.13
2023-05-06T10:40:34.849Z,50.82
2023-05-06T10:41:34.845Z,51.25
2023-05-06T10:42:34.855Z,52.29
2023-05-06T10:43:34.866Z,51.84
2023-05-06T10:44:34.820Z,54.36
2023-05-06T10:45:34.808Z,55.62
2023-05-06T10:46:34.797Z,56.46
2023-05-06T10:47:34.883Z,56.44
2023-05-06T10:48:34.788Z,55.54
2023-05-06T10:49:34.772Z,55.02
2023-05-06T10:50:34.758Z,57.26
2023-05-06T10:51:34.763Z,53.54
2023-05-06T10:52:34.741Z,55.56
2023-05-06T10:53:34.786Z,53.78
2023-05-06T10:54:34.715Z,53.21
2023-05-06T10:55:34.717Z,51.45
2023-05-06T10:56:34.705Z,51.89
2023-05-06T10:57:34.729Z,50.36
2023-05-06T10:58:34.698Z,48.50
2023-05-06T10:59:34.685Z,44.90
2023-05-06T11:00:34.689Z,46.36
2023-05-06T11:01:34.735Z,46.63
2023-05-06T11:02:34.780Z,43.47
2023-05-06T11:03:34.729Z,46.63
2023-05-06T11:04:34.638Z,44.16
2023-05-06T11:05:34.623Z,43.17
2023-05-06T11:06:34.628Z,44.38
2023-05-06T11:07:34.584Z,44.67
2023-05-06T11:08:34.588Z,47.21
2023-05-06T11:09:34.759Z,47.23
2023-05-06T11:10:34.575Z,47.00
2023-05-06T11:11:34.553Z,49.26
2023-05-06T11:12:34.569Z,52.24
2023-05-06T11:13:34.546Z,48.45
2023-05-06T11:14:34.543Z,44.71
2023-05-06T11:15:34.527Z,46.53
2023-05-06T11:16:34.834Z,46.46
2023-05-06T11:17:34.541Z,48.05
2023-05-06T11:18:34.495Z,50.16
2023-05-06T11:19:34.472Z,53.88
2023-05-06T11:20:34.476Z,48.99
2023-05-06T11:21:34.458Z,50.46
2023-05-06T11:22:34.445Z,49.05
2023-05-06T11:23:34.439Z,48.60
2023-05-06T11:24:34.422Z,48.16
2023-05-06T11:25:34.495Z,46.33
2023-05-06T11:26:34.410Z,46.29
2023-05-06T11:27:34.412Z,39.26
2023-05-06T11:28:34.400Z,41.51
2023-05-06T11:29:34.419Z,39.01
2023-05-06T11:30:34.400Z,41.41
2023-05-06T11:31:34.497Z,45.06
2023-05-06T11:32:34.376Z,42.32
2023-05-06T11:33:34.370Z,42.99
2023-05-06T11:34:34.372Z,42.85
2023-05-06T11:35:34.327Z,37.71
2023-05-06T11:36:34.306Z,40.58
2023-05-06T11:37:34.323Z,40.41
2023-05-06T11:38:34.283Z,40.29
2023-05-06T11:39:39.887Z,42.57
2023-05-06T11:40:36.267Z,43.36
2023-05-06T11:41:34.322Z,46.88
2023-05-06T11:42:34.262Z,49.69
2023-05-06T11:43:34.233Z,43.38
2023-05-06T11:44:34.242Z,44.23
2023-05-06T11:45:34.218Z,45.76
2023-05-06T11:46:34.229Z,45.71
2023-05-06T11:47:34.225Z,46.95
2023-05-06T11:48:34.196Z,47.17
2023-05-06T11:49:36.698Z,47.13
2023-05-06T11:50:34.165Z,48.62
2023-05-06T11:51:37.200Z,45.45
2023-05-06T11:52:34.173Z,42.29
2023-05-06T11:53:34.154Z,44.01
2023-05-06T11:54:34.132Z,42.86
2023-05-06T11:55:34.117Z,43.88
2023-05-06T11:56:34.111Z,46.60
2023-05-06T11:57:34.254Z,48.29
2023-05-06T11:58:34.168Z,46.90
2023-05-06T11:59:34.075Z,46.98
2023-05-06T12:00:34.079Z,45.81
2023-05-06T12:01:34.060Z,47.34
2023-05-06T12:02:34.122Z,48.83
2023-05-06T12:03:34.150Z,46.72
2023-05-06T12:04:54.017Z,48.44
2023-05-06T12:05:34.020Z,46.95
2023-05-06T12:06:34.016Z,51.65
2023-05-06T12:07:34.076Z,48.98
2023-05-06T12:08:34.040Z,50.38
2023-05-06T12:09:33.982Z,49.58
2023-05-06T12:10:33.980Z,49.66
2023-05-06T12:11:33.958Z,49.95
2023-05-06T12:12:33.997Z,48.98
2023-05-06T12:13:34.005Z,49.83
2023-05-06T12:14:33.941Z,53.47
2023-05-06T12:15:33.930Z,53.99
2023-05-06T12:16:33.941Z,53.02
2023-05-06T12:17:33.933Z,54.02
2023-05-06T12:18:33.920Z,53.64
2023-05-06T12:19:33.984Z,52.57
2023-05-06T12:20:33.882Z,54.44
2023-05-06T12:21:33.886Z,55.74
2023-05-06T12:22:33.860Z,54.02
2023-05-06T12:23:33.901Z,55.09
2023-05-06T12:24:33.846Z,52.82
2023-05-06T12:25:33.820Z,52.42
2023-05-06T12:26:33.828Z,50.52
2023-05-06T12:27:33.860Z,50.92
2023-05-06T12:28:33.806Z,50.22
2023-05-06T12:29:33.869Z,50.90
2023-05-06T12:30:33.777Z,51.07
2023-05-06T12:31:33.840Z,50.74
2023-05-06T12:32:33.831Z,48.95
2023-05-06T12:33:33.746Z,48.85
2023-05-06T12:34:33.738Z,48.18
2023-05-06T12:35:33.736Z,49.18
2023-05-06T12:36:33.731Z,48.16
2023-05-06T12:37:33.715Z,49.13
2023-05-06T12:38:33.695Z,52.44
2023-05-06T12:39:33.693Z,46.33
2023-05-06T12:40:33.692Z,45.43
2023-05-06T12:41:33.681Z,47.97
2023-05-06T12:42:33.677Z,46.04
2023-05-06T12:43:33.658Z,42.72
2023-05-06T12:44:33.638Z,46.25
2023-05-06T12:45:33.758Z,41.85
2023-05-06T12:46:33.656Z,38.96
2023-05-06T12:47:34.692Z,42.88
2023-05-06T12:48:33.606Z,42.33
2023-05-06T12:49:33.591Z,44.27
2023-05-06T12:50:33.616Z,42.35
2023-05-06T12:51:33.575Z,39.06
2023-05-06T12:52:33.574Z,38.82